Time;durP1;ratioP1;P1;durP2;ratioP2;P2;SDS_P1;SDS_P2;PMS_P1;PMS_P2;Temp;Humidity;BMP_temperature;BMP_pressure;BME280_temperature;BME280_humidity;BME280_pressure;Samples;Min_cycle;Max_cycle;Signal;HPM_P1;HPM_P2
2023/08/06 00:01:35;;;;;;;2.80;2.60;;;;;;;16.07;100.00;96087.47;5036260;28;20219;-64
2023/08/06 00:04:01;;;;;;;2.78;2.55;;;;;;;16.07;100.00;96074.13;5047787;28;20215;-66
2023/08/06 00:06:28;;;;;;;2.55;2.35;;;;;;;16.06;100.00;96071.66;5038826;28;20242;-64
2023/08/06 00:08:54;;;;;;;2.60;2.50;;;;;;;16.05;100.00;96078.03;5036698;28;20218;-64
2023/08/06 00:11:21;;;;;;;2.83;2.63;;;;;;;16.05;100.00;96084.16;5042077;28;20204;-64
2023/08/06 00:13:47;;;;;;;2.92;2.70;;;;;;;15.97;100.00;96086.97;5036589;28;20215;-64
2023/08/06 00:16:15;;;;;;;2.55;2.38;;;;;;;15.96;100.00;96065.81;5036440;28;20203;-64
2023/08/06 00:18:41;;;;;;;2.78;2.58;;;;;;;15.96;100.00;96079.16;5036419;28;20215;-64
2023/08/06 00:21:08;;;;;;;2.65;2.45;;;;;;;15.93;100.00;96088.34;5044511;28;20612;-66
2023/08/06 00:23:34;;;;;;;3.60;3.30;;;;;;;15.91;100.00;96077.88;5039187;28;20203;-65
2023/08/06 00:26:01;;;;;;;2.97;2.78;;;;;;;15.86;100.00;96072.28;5035889;28;20254;-64
2023/08/06 00:28:27;;;;;;;2.63;2.42;;;;;;;15.79;100.00;96062.56;5035679;28;20218;-64
2023/08/06 00:30:54;;;;;;;2.63;2.42;;;;;;;15.77;100.00;96070.75;5036077;28;20219;-64
2023/08/06 00:33:22;;;;;;;2.67;2.58;;;;;;;15.70;100.00;96067.19;5036007;28;20265;-63
2023/08/06 00:35:49;;;;;;;2.63;2.53;;;;;;;15.66;100.00;96062.44;5043539;28;20203;-63
2023/08/06 00:38:15;;;;;;;3.08;2.75;;;;;;;15.65;100.00;96066.94;5042012;28;20222;-65
2023/08/06 00:40:42;;;;;;;3.65;2.58;;;;;;;15.55;100.00;96054.94;5043362;28;20548;-64
2023/08/06 00:43:08;;;;;;;2.70;2.50;;;;;;;15.52;100.00;96053.44;5041190;28;20208;-63
2023/08/06 00:45:38;;;;;;;3.00;2.70;;;;;;;15.47;100.00;96047.84;5035447;28;20232;-64
2023/08/06 00:48:06;;;;;;;2.95;2.10;;;;;;;15.48;100.00;96046.81;5035556;28;20216;-64
2023/08/06 00:50:34;;;;;;;2.67;2.45;;;;;;;15.49;100.00;96034.34;5035785;28;20322;-63
2023/08/06 00:53:01;;;;;;;2.42;2.33;;;;;;;15.49;100.00;96040.50;5035433;28;20679;-63
2023/08/06 00:55:27;;;;;;;2.60;2.03;;;;;;;15.43;100.00;96035.91;5035847;28;20204;-64
2023/08/06 00:57:56;;;;;;;2.38;2.10;;;;;;;15.38;100.00;96032.97;5049048;28;20222;-63
2023/08/06 01:00:23;;;;;;;2.40;2.28;;;;;;;15.33;100.00;96036.22;5035563;28;20708;-64
2023/08/06 01:02:49;;;;;;;3.30;2.33;;;;;;;15.14;100.00;96030.63;5035992;28;20207;-63
2023/08/06 01:05:16;;;;;;;2.75;2.55;;;;;;;15.14;100.00;96047.44;5044610;28;20219;-63
2023/08/06 01:07:52;;;;;;;4.20;2.50;;;;;;;14.98;100.00;96041.50;5040403;28;20223;-63
2023/08/06 01:10:24;;;;;;;2.65;2.45;;;;;;;14.89;100.00;96027.44;5039292;28;20223;-64
2023/08/06 01:12:57;;;;;;;2.50;2.30;;;;;;;14.89;100.00;96033.59;5036309;28;20204;-63
2023/08/06 01:15:26;;;;;;;3.30;2.65;;;;;;;14.87;100.00;96034.78;5035769;28;20214;-64
2023/08/06 01:17:53;;;;;;;2.72;2.50;;;;;;;14.91;100.00;96025.44;5043390;28;20215;-64
2023/08/06 01:20:19;;;;;;;2.60;2.40;;;;;;;14.93;100.00;96024.22;5043416;28;20215;-63
2023/08/06 01:22:47;;;;;;;3.70;2.03;;;;;;;14.93;100.00;96024.22;5035644;28;20218;-64
2023/08/06 01:25:16;;;;;;;2.80;2.17;;;;;;;14.98;100.00;96030.84;5039328;28;20235;-64
2023/08/06 01:27:46;;;;;;;2.00;1.90;;;;;;;15.04;100.00;96024.75;5036750;28;20265;-63
2023/08/06 01:30:13;;;;;;;1.90;1.80;;;;;;;15.04;100.00;96027.44;5036624;28;20598;-64
2023/08/06 01:32:43;;;;;;;2.47;2.25;;;;;;;15.04;100.00;96024.75;5035954;28;20629;-63
2023/08/06 01:35:11;;;;;;;2.17;1.90;;;;;;;15.06;100.00;96022.72;5035486;28;20224;-64
2023/08/06 01:37:38;;;;;;;2.30;2.00;;;;;;;15.10;100.00;96011.53;5043478;28;20625;-64
2023/08/06 01:40:10;;;;;;;2.17;2.08;;;;;;;15.15;100.00;96029.63;5049012;28;20643;-63
2023/08/06 01:42:37;;;;;;;2.55;2.35;;;;;;;15.17;100.00;96039.06;5035980;28;20655;-63
2023/08/06 01:45:04;;;;;;;2.33;2.17;;;;;;;15.13;100.00;96029.78;5053065;28;20231;-63
2023/08/06 01:47:30;;;;;;;2.42;2.22;;;;;;;15.14;100.00;96025.28;5045632;28;20215;-65
2023/08/06 01:49:56;;;;;;;1.93;1.83;;;;;;;15.14;100.00;96027.97;5034929;28;20208;-63
2023/08/06 01:52:23;;;;;;;1.80;1.70;;;;;;;15.16;100.00;96028.63;5034887;28;20208;-63
2023/08/06 01:54:49;;;;;;;1.90;1.80;;;;;;;15.19;100.00;96028.25;5034879;28;20616;-64
2023/08/06 01:57:17;;;;;;;2.90;1.67;;;;;;;15.11;100.00;96013.19;5035241;28;20208;-63
2023/08/06 01:59:43;;;;;;;3.03;2.20;;;;;;;15.13;100.00;96007.66;5037977;28;20223;-64
2023/08/06 02:02:10;;;;;;;2.08;1.98;;;;;;;15.13;100.00;96019.13;5041549;28;20211;-64
2023/08/06 02:04:36;;;;;;;2.22;2.03;;;;;;;15.12;100.00;96017.50;5034412;28;20215;-63
2023/08/06 02:07:03;;;;;;;1.65;1.55;;;;;;;15.11;100.00;96020.34;5033918;28;20279;-63
2023/08/06 02:09:29;;;;;;;3.05;2.20;;;;;;;15.00;100.00;96018.97;5047702;28;20223;-63
2023/08/06 02:11:56;;;;;;;2.00;1.90;;;;;;;14.97;100.00;96010.53;5039930;28;20215;-63
2023/08/06 02:14:24;;;;;;;3.92;1.83;;;;;;;14.98;100.00;96004.22;5047586;28;20218;-64
2023/08/06 02:16:50;;;;;;;2.30;2.10;;;;;;;14.95;100.00;96005.38;5033830;28;20563;-63
2023/08/06 02:19:17;;;;;;;4.80;1.97;;;;;;;14.85;100.00;95997.69;5034277;28;20204;-63
2023/08/06 02:21:43;;;;;;;3.55;1.95;;;;;;;14.78;100.00;95996.78;5042973;28;20215;-64
2023/08/06 02:24:10;;;;;;;2.28;1.90;;;;;;;14.66;100.00;95995.63;5037702;28;20215;-63
2023/08/06 02:26:36;;;;;;;1.80;1.70;;;;;;;14.66;100.00;95994.78;5033437;28;20244;-63
2023/08/06 02:29:02;;;;;;;3.08;1.92;;;;;;;14.64;100.00;95984.31;5034550;28;20219;-63
2023/08/06 02:31:33;;;;;;;2.57;2.13;;;;;;;14.65;100.00;95983.31;5034353;28;20204;-64
2023/08/06 02:33:59;;;;;;;3.10;2.20;;;;;;;14.66;100.00;95974.31;5037735;28;20203;-63
2023/08/06 02:36:29;;;;;;;1.90;1.40;;;;;;;14.67;100.00;95988.44;5044574;28;20264;-64
2023/08/06 02:38:55;;;;;;;1.80;1.67;;;;;;;14.65;100.00;95980.66;5044073;28;20214;-64
2023/08/06 02:41:21;;;;;;;1.60;1.50;;;;;;;14.75;100.00;95981.19;5044955;28;20215;-63
2023/08/06 02:43:48;;;;;;;1.27;1.27;;;;;;;14.82;100.00;95981.28;5051727;28;20536;-64
2023/08/06 02:46:14;;;;;;;2.35;1.33;;;;;;;14.87;100.00;95970.91;5050356;28;20226;-64
2023/08/06 02:48:42;;;;;;;1.60;1.50;;;;;;;14.90;100.00;95976.69;5038283;28;20215;-64
2023/08/06 02:51:08;;;;;;;1.60;1.50;;;;;;;14.89;100.00;95980.34;5037944;28;20211;-63
2023/08/06 02:53:35;;;;;;;1.97;1.70;;;;;;;14.97;100.00;95976.75;5037856;28;20211;-63
2023/08/06 02:56:01;;;;;;;1.40;1.30;;;;;;;14.97;100.00;95963.44;5037878;28;20540;-63
2023/08/06 02:58:28;;;;;;;1.83;1.20;;;;;;;14.97;100.00;95975.94;5037462;28;20208;-64
2023/08/06 03:01:02;;;;;;;1.73;1.20;;;;;;;14.97;100.00;95975.94;5037715;28;20207;-64
2023/08/06 03:03:29;;;;;;;2.08;1.25;;;;;;;14.92;100.00;95971.16;5037707;28;20265;-64
2023/08/06 03:05:57;;;;;;;1.40;1.30;;;;;;;14.93;100.00;95980.81;5037523;28;20238;-64
2023/08/06 03:08:23;;;;;;;1.63;1.53;;;;;;;14.91;100.00;95967.66;5037406;28;20215;-65
2023/08/06 03:10:50;;;;;;;1.52;1.42;;;;;;;14.97;100.00;95978.59;5049269;28;20635;-63
2023/08/06 03:13:17;;;;;;;2.20;1.40;;;;;;;15.01;100.00;95982.53;5037336;28;20230;-65
2023/08/06 03:15:44;;;;;;;1.50;1.40;;;;;;;15.08;100.00;95983.44;5051401;28;20203;-64
2023/08/06 03:18:10;;;;;;;1.58;1.48;;;;;;;15.10;100.00;95974.25;5048169;28;20252;-65
2023/08/06 03:20:37;;;;;;;2.15;1.95;;;;;;;15.14;100.00;95983.50;5049268;28;20640;-64
2023/08/06 03:23:04;;;;;;;1.57;1.47;;;;;;;15.15;100.00;95979.84;5037014;28;20220;-64
2023/08/06 03:25:31;;;;;;;1.63;1.52;;;;;;;15.19;100.00;95975.81;5039621;28;20235;-64
2023/08/06 03:27:57;;;;;;;2.22;1.30;;;;;;;15.17;100.00;95971.66;5035641;28;20644;-64
2023/08/06 03:30:23;;;;;;;1.40;1.30;;;;;;;15.20;100.00;95981.94;5050231;28;20218;-64
2023/08/06 03:32:50;;;;;;;1.50;1.27;;;;;;;15.17;100.00;95969.00;5042531;28;20214;-64
2023/08/06 03:35:16;;;;;;;2.35;1.60;;;;;;;15.21;100.00;95967.59;5063252;28;20207;-64
2023/08/06 03:37:43;;;;;;;1.60;1.50;;;;;;;15.21;100.00;95964.94;5050195;28;20211;-64
2023/08/06 03:40:11;;;;;;;1.73;1.57;;;;;;;15.22;100.00;95972.75;5048525;28;20211;-63
2023/08/06 03:42:38;;;;;;;1.83;1.73;;;;;;;15.17;100.00;95969.81;5035412;28;20212;-64
2023/08/06 03:45:06;;;;;;;1.35;1.25;;;;;;;15.20;100.00;95971.28;5035630;28;20219;-64
2023/08/06 03:47:32;;;;;;;1.60;1.50;;;;;;;15.21;100.00;95970.28;5035743;28;20298;-65
2023/08/06 03:49:59;;;;;;;1.63;1.50;;;;;;;15.21;100.00;95967.59;5035406;28;20541;-65
2023/08/06 03:52:25;;;;;;;1.70;1.50;;;;;;;15.20;100.00;95973.94;5035396;28;20216;-65
2023/08/06 03:54:51;;;;;;;3.20;1.48;;;;;;;15.20;100.00;95974.78;5035695;28;20215;-64
2023/08/06 03:57:19;;;;;;;1.02;0.93;;;;;;;15.25;100.00;95966.22;5041524;28;20204;-64
2023/08/06 03:59:46;;;;;;;2.17;1.77;;;;;;;15.25;100.00;95979.53;5037338;28;20208;-65
2023/08/06 04:02:12;;;;;;;1.98;1.20;;;;;;;15.25;100.00;95971.56;5036128;28;20207;-64
2023/08/06 04:04:39;;;;;;;1.40;1.30;;;;;;;15.28;100.00;95974.66;5036030;28;20204;-64
2023/08/06 04:07:05;;;;;;;1.40;1.30;;;;;;;15.28;100.00;95976.50;5035610;28;20243;-64
2023/08/06 04:09:32;;;;;;;1.50;1.40;;;;;;;15.32;100.00;95985.75;5049198;28;20234;-63
2023/08/06 04:12:01;;;;;;;2.90;1.70;;;;;;;15.35;100.00;95982.72;5041273;28;20200;-64
2023/08/06 04:14:29;;;;;;;2.07;1.47;;;;;;;15.34;100.00;95973.06;5035446;28;20625;-64
2023/08/06 04:16:55;;;;;;;1.80;1.17;;;;;;;15.35;100.00;95982.72;5035308;28;20298;-64
2023/08/06 04:19:21;;;;;;;1.03;0.93;;;;;;;15.33;100.00;95982.09;5036421;28;20212;-64
2023/08/06 04:21:48;;;;;;;1.52;1.42;;;;;;;15.37;100.00;95968.19;5043724;28;20211;-64
2023/08/06 04:24:14;;;;;;;1.50;1.40;;;;;;;15.37;100.00;95983.38;5039317;28;20215;-64
2023/08/06 04:26:41;;;;;;;1.65;1.55;;;;;;;15.37;100.00;95992.16;5010298;28;1074911;-64
2023/08/06 04:29:07;;;;;;;1.50;1.40;;;;;;;15.36;100.00;96000.38;5037944;28;20208;-63
2023/08/06 04:31:35;;;;;;;1.38;1.30;;;;;;;15.35;100.00;96012.84;5036471;28;20219;-63
2023/08/06 04:34:02;;;;;;;1.50;1.40;;;;;;;15.35;100.00;96018.19;5036575;28;20211;-64
2023/08/06 04:36:28;;;;;;;1.65;1.15;;;;;;;15.25;100.00;96022.16;5043043;28;20250;-64
2023/08/06 04:38:55;;;;;;;1.95;1.30;;;;;;;15.15;100.00;96016.31;5042572;28;20199;-64
2023/08/06 04:41:21;;;;;;;3.20;1.05;;;;;;;15.05;100.00;96021.94;5043468;28;20299;-65
2023/08/06 04:43:47;;;;;;;1.30;0.88;;;;;;;14.89;100.00;96022.09;5036273;28;20208;-64
2023/08/06 04:46:14;;;;;;;1.37;0.90;;;;;;;14.81;100.00;96028.34;5035557;28;20235;-63
2023/08/06 04:48:42;;;;;;;2.17;0.90;;;;;;;14.71;100.00;96041.13;5036311;28;20553;-65
2023/08/06 04:51:08;;;;;;;0.93;0.60;;;;;;;14.66;100.00;96035.53;5036239;28;20219;-64
2023/08/06 04:53:35;;;;;;;3.83;0.90;;;;;;;14.59;100.00;96045.25;5036276;28;20215;-63
2023/08/06 04:56:01;;;;;;;1.00;0.65;;;;;;;14.51;100.00;96047.16;5035325;28;20208;-63
2023/08/06 04:58:28;;;;;;;1.95;0.63;;;;;;;14.41;100.00;96055.41;5035717;28;20517;-64
2023/08/06 05:00:54;;;;;;;1.03;0.50;;;;;;;14.46;100.00;96047.69;5035651;28;20218;-64
2023/08/06 05:03:21;;;;;;;2.27;1.00;;;;;;;14.42;100.00;96057.88;5035632;28;20699;-63
2023/08/06 05:05:50;;;;;;;2.03;0.70;;;;;;;14.40;100.00;96065.22;5035429;28;20625;-63
2023/08/06 05:08:17;;;;;;;1.63;0.70;;;;;;;14.33;100.00;96058.94;5035714;28;20212;-63
2023/08/06 05:10:44;;;;;;;0.87;0.67;;;;;;;14.40;100.00;96075.03;5041920;28;20230;-63
2023/08/06 05:13:11;;;;;;;2.37;0.70;;;;;;;14.29;100.00;96078.91;5035103;28;20695;-65
2023/08/06 05:15:37;;;;;;;2.10;0.80;;;;;;;14.29;100.00;96092.22;5035563;28;20219;-66
2023/08/06 05:18:04;;;;;;;2.10;0.60;;;;;;;14.21;100.00;96091.44;5035259;28;20247;-65
2023/08/06 05:20:31;;;;;;;2.40;0.63;;;;;;;14.09;100.00;96082.25;5043942;28;20214;-65
2023/08/06 05:22:59;;;;;;;0.37;0.37;;;;;;;14.10;100.00;96087.38;5035454;28;20207;-64
2023/08/06 05:25:25;;;;;;;1.63;0.60;;;;;;;14.12;100.00;96081.88;5037738;28;20227;-64
2023/08/06 05:27:53;;;;;;;0.57;0.37;;;;;;;14.13;100.00;96088.88;5034760;28;20550;-64
2023/08/06 05:30:19;;;;;;;1.33;0.60;;;;;;;14.14;100.00;96095.81;5035021;28;20215;-65
2023/08/06 05:32:46;;;;;;;1.60;0.60;;;;;;;14.08;100.00;96092.06;5034961;28;20215;-64
2023/08/06 05:35:12;;;;;;;1.03;0.47;;;;;;;14.10;100.00;96094.53;5037841;28;20223;-64
2023/08/06 05:37:38;;;;;;;1.17;0.70;;;;;;;14.07;100.00;96092.22;5045827;28;20195;-64
2023/08/06 05:40:07;;;;;;;0.83;0.40;;;;;;;14.06;100.00;96090.59;5047196;28;20268;-65
2023/08/06 05:42:34;;;;;;;0.77;0.40;;;;;;;14.02;100.00;96095.44;5034652;28;20215;-65
2023/08/06 05:45:00;;;;;;;0.60;0.50;;;;;;;14.11;100.00;96094.34;5034768;28;20211;-64
2023/08/06 05:47:27;;;;;;;1.13;0.70;;;;;;;14.17;100.00;96100.81;5044802;28;20293;-64
2023/08/06 05:49:53;;;;;;;1.60;0.60;;;;;;;14.25;100.00;96098.06;5037888;28;20215;-64
2023/08/06 05:52:20;;;;;;;1.03;0.73;;;;;;;14.34;100.00;96103.19;5034939;28;20215;-64
2023/08/06 05:54:46;;;;;;;1.67;0.63;;;;;;;14.42;100.00;96100.44;5034566;28;20524;-64
2023/08/06 05:57:14;;;;;;;1.47;0.47;;;;;;;14.47;100.00;96099.91;5034403;28;20199;-64
2023/08/06 05:59:41;;;;;;;0.90;0.40;;;;;;;14.47;100.00;96101.72;5038570;28;20211;-64
2023/08/06 06:02:07;;;;;;;1.17;0.40;;;;;;;14.44;100.00;96092.28;5043327;28;20208;-64
2023/08/06 06:04:34;;;;;;;0.83;0.50;;;;;;;14.47;100.00;96105.22;5034522;28;20559;-64
2023/08/06 06:07:01;;;;;;;0.77;0.73;;;;;;;14.57;100.00;96103.13;5034682;28;20227;-64
2023/08/06 06:09:27;;;;;;;1.00;0.60;;;;;;;14.56;100.00;96101.47;5034719;28;20212;-64
2023/08/06 06:11:54;;;;;;;0.90;0.73;;;;;;;14.78;100.00;96097.94;5040122;28;20231;-64
2023/08/06 06:14:22;;;;;;;1.33;0.60;;;;;;;15.17;100.00;96099.50;5034223;28;20208;-66
2023/08/06 06:16:48;;;;;;;1.07;0.60;;;;;;;15.36;100.00;96096.28;5034223;28;20200;-67
2023/08/06 06:19:14;;;;;;;0.95;0.55;;;;;;;15.61;100.00;96092.31;5034381;28;20219;-65
2023/08/06 06:21:41;;;;;;;1.13;0.53;;;;;;;15.96;100.00;96097.81;5042591;28;20269;-65
2023/08/06 06:24:08;;;;;;;1.80;0.50;;;;;;;16.23;100.00;96110.38;5037482;28;20207;-64
2023/08/06 06:26:34;;;;;;;2.25;0.70;;;;;;;16.34;100.00;96097.38;5033441;28;20761;-65
2023/08/06 06:29:01;;;;;;;1.20;0.60;;;;;;;16.67;100.00;96097.69;5034239;28;20223;-65
2023/08/06 06:31:28;;;;;;;0.85;0.50;;;;;;;16.90;100.00;96110.75;5034397;28;20211;-64
2023/08/06 06:33:55;;;;;;;0.60;0.50;;;;;;;17.01;100.00;96115.56;5047766;28;20212;-65
2023/08/06 06:36:23;;;;;;;1.35;0.70;;;;;;;17.10;100.00;96132.28;5040047;28;20203;-64
2023/08/06 06:38:49;;;;;;;1.88;0.63;;;;;;;17.33;100.00;96119.47;5040637;28;20199;-65
2023/08/06 06:41:17;;;;;;;2.45;0.73;;;;;;;17.34;98.93;96134.47;5042221;28;20239;-65
2023/08/06 06:43:43;;;;;;;0.80;0.60;;;;;;;17.62;100.00;96137.94;5034017;28;20280;-64
2023/08/06 06:46:10;;;;;;;0.77;0.70;;;;;;;17.67;93.97;96135.50;5034117;28;20314;-64
2023/08/06 06:48:37;;;;;;;1.27;0.52;;;;;;;17.57;94.43;96134.22;5034272;28;20227;-64
2023/08/06 06:51:04;;;;;;;1.65;0.80;;;;;;;17.39;96.13;96148.88;5034358;28;20599;-63
2023/08/06 06:53:30;;;;;;;0.30;0.28;;;;;;;17.38;98.19;96146.44;5039631;28;20207;-66
2023/08/06 06:55:57;;;;;;;1.30;0.60;;;;;;;17.18;94.09;96159.66;5041059;28;20214;-64
2023/08/06 06:58:24;;;;;;;0.90;0.65;;;;;;;16.92;94.11;96157.66;5033906;28;20216;-64
2023/08/06 07:00:50;;;;;;;1.67;0.55;;;;;;;16.63;94.47;96163.16;5034656;28;20211;-66
2023/08/06 07:03:17;;;;;;;2.20;0.60;;;;;;;16.39;96.29;96167.00;5035766;28;20215;-66
2023/08/06 07:05:45;;;;;;;1.00;0.50;;;;;;;16.31;98.71;96174.31;5034955;28;20265;-65
2023/08/06 07:08:12;;;;;;;1.02;0.60;;;;;;;16.32;100.00;96167.97;5033694;28;20232;-64
2023/08/06 07:10:39;;;;;;;2.63;0.63;;;;;;;15.97;100.00;96174.13;5040169;28;20537;-62
2023/08/06 07:13:05;;;;;;;2.28;0.43;;;;;;;15.89;100.00;96162.56;5033783;28;20299;-63
2023/08/06 07:15:32;;;;;;;2.03;0.43;;;;;;;15.67;100.00;96163.53;5033750;28;20552;-64
2023/08/06 07:17:59;;;;;;;0.50;0.43;;;;;;;15.58;100.00;96167.31;5034558;28;20586;-65
2023/08/06 07:20:25;;;;;;;0.88;0.50;;;;;;;15.49;100.00;96163.09;5045875;28;20210;-64
2023/08/06 07:22:53;;;;;;;1.27;0.55;;;;;;;15.49;100.00;96184.41;5046019;28;20662;-64
2023/08/06 07:25:20;;;;;;;1.25;0.90;;;;;;;15.31;100.00;96170.59;5042397;28;20208;-64
2023/08/06 07:27:46;;;;;;;1.10;0.50;;;;;;;15.22;100.00;96179.69;5045191;28;20223;-66
2023/08/06 07:30:13;;;;;;;1.13;1.03;;;;;;;15.31;100.00;96173.25;5042560;28;20216;-64
2023/08/06 07:32:39;;;;;;;1.15;1.05;;;;;;;15.37;100.00;96183.19;5037289;28;20204;-64
2023/08/06 07:35:08;;;;;;;0.88;0.50;;;;;;;15.30;100.00;96182.28;5038692;28;20226;-64
2023/08/06 07:37:34;;;;;;;0.73;0.33;;;;;;;15.33;100.00;96184.56;5048842;28;20242;-65
2023/08/06 07:40:02;;;;;;;1.05;0.70;;;;;;;15.39;100.00;96195.31;5049869;28;20215;-64
2023/08/06 07:42:28;;;;;;;0.93;0.30;;;;;;;15.24;100.00;96196.31;5036518;28;20208;-65
2023/08/06 07:44:55;;;;;;;0.82;0.30;;;;;;;15.18;100.00;96211.19;5039270;28;20235;-64
2023/08/06 07:47:22;;;;;;;2.40;0.40;;;;;;;15.01;100.00;96200.88;5047992;28;20239;-63
2023/08/06 07:49:48;;;;;;;1.75;0.40;;;;;;;15.06;100.00;96206.47;5037105;28;20354;-63
2023/08/06 07:52:15;;;;;;;1.20;0.50;;;;;;;14.94;100.00;96212.25;5037094;28;20238;-64
2023/08/06 07:54:41;;;;;;;1.25;0.30;;;;;;;14.83;100.00;96214.53;5036984;28;20579;-67
2023/08/06 07:57:10;;;;;;;1.05;0.60;;;;;;;14.83;100.00;96220.69;5036848;28;20220;-63
2023/08/06 07:59:36;;;;;;;0.60;0.38;;;;;;;14.72;100.00;96226.41;5037089;28;20208;-63
2023/08/06 08:02:04;;;;;;;1.05;0.35;;;;;;;14.55;100.00;96224.06;5037150;28;20212;-64
2023/08/06 08:04:30;;;;;;;1.47;0.60;;;;;;;14.52;100.00;96230.56;5037910;28;20242;-63
2023/08/06 08:06:56;;;;;;;0.90;0.40;;;;;;;14.46;100.00;96233.91;5037430;28;20207;-64
2023/08/06 08:09:23;;;;;;;1.20;0.60;;;;;;;14.38;100.00;96232.13;5037943;28;20222;-64
2023/08/06 08:11:50;;;;;;;0.90;0.30;;;;;;;14.41;100.00;96241.63;5049958;28;20240;-65
2023/08/06 08:14:17;;;;;;;0.40;0.30;;;;;;;14.32;100.00;96243.47;5038606;28;20513;-65
2023/08/06 08:16:44;;;;;;;0.53;0.43;;;;;;;14.28;100.00;96242.16;5040507;28;20216;-66
2023/08/06 08:19:10;;;;;;;1.00;0.67;;;;;;;14.30;100.00;96244.66;5042340;28;20203;-67
2023/08/06 08:21:37;;;;;;;1.77;1.40;;;;;;;14.23;100.00;96251.69;5049984;28;20223;-66
2023/08/06 08:24:05;;;;;;;1.60;0.57;;;;;;;14.14;100.00;96244.72;5042458;28;20208;-67
2023/08/06 08:26:31;;;;;;;1.57;0.60;;;;;;;14.04;100.00;96244.13;5037248;28;20243;-67
2023/08/06 08:28:58;;;;;;;0.40;0.40;;;;;;;14.07;100.00;96249.09;5036431;28;20675;-67
2023/08/06 08:31:25;;;;;;;1.27;0.70;;;;;;;14.00;100.00;96253.44;5035425;28;20212;-67
2023/08/06 08:33:53;;;;;;;0.60;0.50;;;;;;;14.00;100.00;96253.44;5036203;28;20215;-66
2023/08/06 08:36:19;;;;;;;0.43;0.40;;;;;;;14.04;100.00;96262.72;5041380;28;20703;-66
2023/08/06 08:38:46;;;;;;;0.87;0.27;;;;;;;13.98;100.00;96253.63;5042019;28;20199;-66
2023/08/06 08:41:12;;;;;;;1.23;0.40;;;;;;;13.88;100.00;96256.50;5044672;28;20294;-65
2023/08/06 08:43:41;;;;;;;0.30;0.30;;;;;;;13.87;100.00;96254.84;5035661;28;20315;-66
2023/08/06 08:46:09;;;;;;;2.50;0.30;;;;;;;13.88;100.00;96267.13;5036101;28;20235;-66
2023/08/06 08:48:37;;;;;;;2.07;0.50;;;;;;;13.94;100.00;96260.28;5035901;28;20510;-66
2023/08/06 08:51:05;;;;;;;1.90;0.73;;;;;;;13.97;100.00;96262.59;5036273;28;20548;-66
2023/08/06 08:53:32;;;;;;;0.70;0.40;;;;;;;13.98;100.00;96266.09;5036531;28;20231;-67
2023/08/06 08:55:59;;;;;;;2.70;0.60;;;;;;;14.00;100.00;96258.75;5049483;28;20211;-65
2023/08/06 08:58:25;;;;;;;1.47;0.47;;;;;;;13.89;100.00;96266.13;5035883;28;20204;-67
2023/08/06 09:00:52;;;;;;;0.60;0.50;;;;;;;13.90;100.00;96265.13;5068480;28;20223;-66
2023/08/06 09:03:19;;;;;;;0.30;0.30;;;;;;;14.02;100.00;96262.91;5042845;28;20207;-66
2023/08/06 09:05:50;;;;;;;1.27;0.70;;;;;;;13.95;100.00;96260.13;5055932;28;20211;-66
2023/08/06 09:08:19;;;;;;;2.47;0.63;;;;;;;14.10;100.00;96264.72;5036061;28;20552;-67
2023/08/06 09:10:45;;;;;;;1.20;0.60;;;;;;;14.13;100.00;96262.53;5041926;28;20210;-66
2023/08/06 09:13:12;;;;;;;2.63;0.80;;;;;;;14.10;100.00;96268.19;5035186;28;20530;-65
2023/08/06 09:15:38;;;;;;;1.40;0.30;;;;;;;14.17;100.00;96271.00;5035508;28;20207;-65
2023/08/06 09:18:10;;;;;;;1.20;0.60;;;;;;;14.22;100.00;96272.13;5035077;28;20219;-66
2023/08/06 09:20:40;;;;;;;0.80;0.57;;;;;;;14.08;100.00;96267.53;5048718;28;20214;-66
2023/08/06 09:23:11;;;;;;;2.10;0.50;;;;;;;14.13;100.00;96273.19;5035348;28;20222;-67
2023/08/06 09:25:40;;;;;;;0.50;0.40;;;;;;;14.16;100.00;96293.25;5034759;28;20699;-67
2023/08/06 09:28:07;;;;;;;0.20;0.20;;;;;;;14.21;100.00;96275.78;5034762;28;20241;-67
2023/08/06 09:30:34;;;;;;;0.60;0.33;;;;;;;14.24;100.00;96278.06;5035137;28;20227;-66
2023/08/06 09:33:01;;;;;;;0.57;0.40;;;;;;;14.33;100.00;96269.06;5034911;28;20338;-66
2023/08/06 09:35:29;;;;;;;1.02;0.30;;;;;;;14.45;100.00;96280.19;5048043;28;20208;-66
2023/08/06 09:37:56;;;;;;;0.50;0.40;;;;;;;14.55;100.00;96283.44;5042067;28;20246;-66
2023/08/06 09:40:28;;;;;;;0.70;0.50;;;;;;;14.60;100.00;96277.56;5047460;28;20281;-68
2023/08/06 09:42:55;;;;;;;0.67;0.30;;;;;;;14.84;100.00;96283.53;5034550;28;20223;-67
2023/08/06 09:45:22;;;;;;;1.50;0.30;;;;;;;14.98;100.00;96292.59;5036912;28;20223;-67
2023/08/06 09:47:50;;;;;;;1.50;0.83;;;;;;;15.10;100.00;96293.81;5036173;28;20694;-66
2023/08/06 09:50:18;;;;;;;0.37;0.10;;;;;;;15.27;100.00;96303.31;5035983;28;20234;-65
2023/08/06 09:52:45;;;;;;;0.20;0.20;;;;;;;15.24;100.00;96305.53;5035524;28;20239;-64
2023/08/06 09:55:13;;;;;;;0.10;0.10;;;;;;;15.23;100.00;96298.56;5035654;28;20208;-66
2023/08/06 09:57:41;;;;;;;1.47;0.90;;;;;;;15.26;100.00;96306.19;5035615;28;20200;-63
2023/08/06 10:00:09;;;;;;;1.42;0.57;;;;;;;15.35;100.00;96310.41;5042191;28;20234;-67
2023/08/06 10:02:36;;;;;;;0.17;0.13;;;;;;;15.03;100.00;96308.03;5041806;28;20235;-64
2023/08/06 10:05:03;;;;;;;0.43;0.20;;;;;;;14.99;100.00;96309.38;5047866;28;20221;-65
2023/08/06 10:07:31;;;;;;;1.17;0.20;;;;;;;14.86;100.00;96321.47;5035724;28;20522;-66
2023/08/06 10:09:59;;;;;;;0.20;0.20;;;;;;;14.75;100.00;96324.53;5047826;28;20629;-65
2023/08/06 10:12:26;;;;;;;0.57;0.52;;;;;;;14.84;100.00;96328.78;5038532;28;20203;-66
2023/08/06 10:14:55;;;;;;;0.47;0.10;;;;;;;14.70;100.00;96329.56;5034426;28;20211;-66
2023/08/06 10:17:22;;;;;;;0.27;0.20;;;;;;;14.69;100.00;96335.91;5034194;28;20357;-66
2023/08/06 10:19:50;;;;;;;0.20;0.20;;;;;;;14.66;100.00;96335.44;5038555;28;20210;-65
2023/08/06 10:22:17;;;;;;;0.50;0.30;;;;;;;14.54;100.00;96335.00;5037252;28;20778;-67
2023/08/06 10:24:51;;;;;;;0.30;0.30;;;;;;;14.47;100.00;96343.84;5037189;28;20227;-67
2023/08/06 10:27:21;;;;;;;0.20;0.20;;;;;;;14.39;100.00;96340.22;5037660;28;20243;-66
2023/08/06 10:29:48;;;;;;;0.33;0.33;;;;;;;14.35;100.00;96338.06;5042606;28;20575;-67
2023/08/06 10:32:18;;;;;;;0.73;0.23;;;;;;;14.32;100.00;96333.06;5035526;28;20429;-66
2023/08/06 10:34:58;;;;;;;0.60;0.50;;;;;;;14.35;100.00;96335.41;5048349;28;20693;-66
2023/08/06 10:37:24;;;;;;;0.20;0.20;;;;;;;14.44;100.00;96331.72;5048043;28;20292;-65
2023/08/06 10:39:51;;;;;;;0.23;0.20;;;;;;;14.48;100.00;96343.69;5047399;28;20539;-67
2023/08/06 10:42:22;;;;;;;0.30;0.30;;;;;;;14.61;100.00;96338.59;5035047;28;20207;-66
2023/08/06 10:45:17;;;;;;;0.30;0.30;;;;;;;14.51;100.00;96348.66;5035396;28;20207;-68
2023/08/06 10:47:46;;;;;;;0.70;0.30;;;;;;;14.63;100.00;96343.75;5066817;28;20567;-66
2023/08/06 10:50:16;;;;;;;0.17;0.17;;;;;;;14.68;100.00;96352.88;5033944;28;20207;-66
2023/08/06 10:52:43;;;;;;;0.40;0.40;;;;;;;14.69;100.00;96357.19;5038028;28;20200;-66
2023/08/06 10:55:10;;;;;;;0.43;0.40;;;;;;;14.44;100.00;96353.00;5038412;28;20208;-66
2023/08/06 10:57:36;;;;;;;0.40;0.40;;;;;;;14.21;100.00;96352.91;5038805;28;20211;-64
2023/08/06 11:00:05;;;;;;;0.30;0.20;;;;;;;14.34;100.00;96363.03;5038936;28;20273;-65
2023/08/06 11:02:34;;;;;;;0.20;0.20;;;;;;;14.51;100.00;96364.59;5039022;28;20212;-65
2023/08/06 11:05:07;;;;;;;0.50;0.30;;;;;;;14.58;100.00;96354.94;5050465;28;20277;-65
2023/08/06 11:07:34;;;;;;;0.70;0.43;;;;;;;14.57;100.00;96358.56;5037842;28;20297;-65
2023/08/06 11:10:04;;;;;;;0.10;0.10;;;;;;;14.63;100.00;96359.72;5039237;28;20231;-64
2023/08/06 11:12:31;;;;;;;0.20;0.20;;;;;;;14.63;100.00;96355.22;5041773;28;20288;-64
2023/08/06 11:14:57;;;;;;;0.17;0.17;;;;;;;14.69;100.00;96351.88;5037539;28;20266;-64
2023/08/06 11:17:24;;;;;;;0.30;0.27;;;;;;;14.73;100.00;96358.50;5051072;28;20215;-65
2023/08/06 11:19:51;;;;;;;0.30;0.30;;;;;;;14.71;100.00;96360.50;5042504;28;20528;-66
2023/08/06 11:22:19;;;;;;;0.30;0.30;;;;;;;14.75;100.00;96358.31;5041209;28;20204;-65
2023/08/06 11:24:46;;;;;;;0.90;0.47;;;;;;;14.74;100.00;96349.50;5040635;28;20208;-65